Time;durP1;ratioP1;P1;durP2;ratioP2;P2;SDS_P1;SDS_P2;PMS_P1;PMS_P2;Temp;Humidity;BMP_temperature;BMP_pressure;BME280_temperature;BME280_humidity;BME280_pressure;Samples;Min_cycle;Max_cycle;Signal;HPM_P1;HPM_P2
2024/02/02 00:01:40;;;;;;;8.40;6.22;;;;;;;;;;4957797;28;20185;-87
2024/02/02 00:04:07;;;;;;;10.50;7.05;;;;;;;;;;4961855;28;20603;-88
2024/02/02 00:06:32;;;;;;;11.07;7.20;;;5.10;99.90;;;;;;4959487;28;20227;-87
2024/02/02 00:08:58;;;;;;;8.20;7.30;;;;;;;;;;4942153;28;20629;-88
2024/02/02 00:11:24;;;;;;;9.88;6.93;;;5.50;99.90;;;;;;4962613;28;20181;-89
2024/02/02 00:13:50;;;;;;;9.10;7.27;;;;;;;;;;4941970;29;20799;-88
2024/02/02 00:16:16;;;;;;;7.53;6.25;;;;;;;;;;4957020;28;20678;-88
2024/02/02 00:18:42;;;;;;;8.20;7.15;;;;;;;;;;4957117;28;20219;-88
2024/02/02 00:21:08;;;;;;;8.25;6.63;;;;;;;;;;4941298;28;20192;-88
2024/02/02 00:23:33;;;;;;;9.27;7.38;;;5.00;99.90;;;;;;4960120;28;20251;-89
2024/02/02 00:25:59;;;;;;;8.90;6.57;;;;;;;;;;4940058;29;20220;-88
2024/02/02 00:28:26;;;;;;;9.32;6.47;;;;;;;;;;4956058;28;20213;-89
2024/02/02 00:30:54;;;;;;;7.85;7.05;;;5.10;99.90;;;;;;4955181;28;20645;-88
2024/02/02 00:33:20;;;;;;;7.68;6.10;;;;;;;;;;4940619;29;20275;-88
2024/02/02 00:35:46;;;;;;;11.65;6.03;;;;;;;;;;4958257;28;20208;-89
2024/02/02 00:38:12;;;;;;;7.38;6.47;;;;;;;;;;4957251;28;20239;-88
2024/02/02 00:40:38;;;;;;;11.13;6.77;;;;;;;;;;4959680;28;20196;-87
2024/02/02 00:43:04;;;;;;;7.20;6.30;;;;;;;;;;4960280;28;20449;-88
2024/02/02 00:45:30;;;;;;;8.07;6.57;;;;;;;;;;4959061;28;20701;-88
2024/02/02 00:47:56;;;;;;;7.60;6.85;;;5.00;99.90;;;;;;4963444;28;20196;-88
2024/02/02 00:50:22;;;;;;;6.27;5.67;;;;;;;;;;4944915;28;20234;-89
2024/02/02 00:52:48;;;;;;;7.65;5.47;;;5.00;99.90;;;;;;4962392;28;20208;-88
2024/02/02 00:55:14;;;;;;;10.38;5.97;;;;;;;;;;4948092;28;20670;-88
2024/02/02 00:57:40;;;;;;;8.55;5.32;;;;;;;;;;4959760;28;20186;-88
2024/02/02 01:00:10;;;;;;;5.65;5.05;;;5.20;99.90;;;;;;4958252;28;20188;-88
2024/02/02 01:02:36;;;;;;;8.00;5.45;;;5.20;99.90;;;;;;4942898;29;20204;-88
2024/02/02 01:05:02;;;;;;;6.47;5.60;;;6.00;99.90;;;;;;4941667;28;20493;-88
2024/02/02 01:07:28;;;;;;;7.13;5.47;;;;;;;;;;4946307;28;20188;-88
2024/02/02 01:09:54;;;;;;;5.75;5.15;;;5.20;99.90;;;;;;4956241;28;20637;-88
2024/02/02 01:12:19;;;;;;;5.70;4.77;;;6.30;99.90;;;;;;4943031;29;20278;-89
2024/02/02 01:14:46;;;;;;;5.63;4.80;;;;;;;;;;4944172;29;20209;-89
2024/02/02 01:17:13;;;;;;;7.88;5.75;;;;;;;;;;4962210;28;20448;-88
2024/02/02 01:19:39;;;;;;;8.00;5.65;;;;;;;;;;4948681;28;20199;-86
2024/02/02 01:22:05;;;;;;;7.40;5.75;;;;;;;;;;4958317;28;20185;-88
2024/02/02 01:24:31;;;;;;;7.45;4.60;;;;;;;;;;4957598;28;20703;-88
2024/02/02 01:26:57;;;;;;;6.63;5.03;;;;;;;;;;4965689;28;20196;-89
2024/02/02 01:29:25;;;;;;;7.45;4.72;;;;;;;;;;4961137;28;20211;-88
2024/02/02 01:31:50;;;;;;;7.50;4.63;;;5.00;99.90;;;;;;4970930;28;20185;-88
2024/02/02 01:34:16;;;;;;;7.00;4.17;;;;;;;;;;4943203;28;20204;-88
2024/02/02 01:36:42;;;;;;;6.50;4.20;;;4.70;99.90;;;;;;4948146;28;20486;-88
2024/02/02 01:39:13;;;;;;;8.30;3.90;;;6.40;99.90;;;;;;4945476;29;20259;-88
2024/02/02 01:41:38;;;;;;;5.53;4.50;;;6.40;99.90;;;;;;4925214;29;20185;-88
2024/02/02 01:44:05;;;;;;;9.00;4.30;;;5.90;99.90;;;;;;4928624;28;20220;-87
2024/02/02 01:46:31;;;;;;;5.05;3.90;;;6.40;99.90;;;;;;4952663;29;20215;-88
2024/02/02 01:49:00;;;;;;;6.07;4.20;;;;;;;;;;4947863;28;20207;-89
2024/02/02 01:51:25;;;;;;;5.82;4.18;;;4.90;99.90;;;;;;4946803;29;20448;-88
2024/02/02 01:53:52;;;;;;;5.00;4.10;;;5.00;99.90;;;;;;4949142;28;20195;-88
2024/02/02 01:56:18;;;;;;;5.38;4.13;;;;;;;;;;4955994;29;20218;-89
2024/02/02 01:58:44;;;;;;;6.25;4.20;;;4.70;99.90;;;;;;4963564;28;20527;-87
2024/02/02 02:01:10;;;;;;;6.67;4.10;;;;;;;;;;4961882;28;20177;-88
2024/02/02 02:03:36;;;;;;;6.50;4.30;;;4.60;99.90;;;;;;4977303;28;20431;-88
2024/02/02 02:06:03;;;;;;;5.30;3.50;;;;;;;;;;4960860;28;20223;-87
2024/02/02 02:08:28;;;;;;;9.75;3.63;;;4.70;99.90;;;;;;4976698;28;20205;-88
2024/02/02 02:10:54;;;;;;;7.40;3.77;;;;;;;;;;4958128;29;20761;-88
2024/02/02 02:13:21;;;;;;;6.47;4.65;;;;;;;;;;4964323;28;20198;-88
2024/02/02 02:15:46;;;;;;;6.10;3.50;;;4.80;99.90;;;;;;4947958;29;20213;-87
2024/02/02 02:18:12;;;;;;;5.83;4.30;;;3.90;99.90;;;;;;4943383;28;20198;-88
2024/02/02 02:20:39;;;;;;;6.27;3.97;;;4.80;99.90;;;;;;4947009;29;20208;-88
2024/02/02 02:23:04;;;;;;;5.20;3.20;;;6.00;99.90;;;;;;4943530;29;20196;-88
2024/02/02 02:25:32;;;;;;;3.83;3.50;;;5.20;99.90;;;;;;4944552;29;20218;-88
2024/02/02 02:27:57;;;;;;;4.65;3.20;;;4.00;99.90;;;;;;4944977;28;20192;-89
2024/02/02 02:30:23;;;;;;;4.40;3.40;;;;;;;;;;4941653;29;20247;-88
2024/02/02 02:32:49;;;;;;;7.13;5.35;;;4.80;99.90;;;;;;4960793;28;20213;-88
2024/02/02 02:35:15;;;;;;;4.30;3.90;;;;;;;;;;4942333;29;20215;-88
2024/02/02 02:37:40;;;;;;;6.20;3.50;;;4.70;99.90;;;;;;4957465;28;20211;-88
2024/02/02 02:40:08;;;;;;;5.67;3.90;;;6.20;99.90;;;;;;4939843;29;20216;-88
2024/02/02 02:42:34;;;;;;;10.98;3.80;;;4.60;99.90;;;;;;4940805;29;20187;-87
2024/02/02 02:45:00;;;;;;;4.57;3.47;;;;;;;;;;4938286;28;20259;-87
2024/02/02 02:47:25;;;;;;;3.72;3.33;;;5.00;99.90;;;;;;4961983;28;20200;-89
2024/02/02 02:49:52;;;;;;;4.40;3.60;;;;;;;;;;4938887;29;20604;-89
2024/02/02 02:52:18;;;;;;;5.97;3.70;;;4.80;99.90;;;;;;4957082;28;20201;-88
2024/02/02 02:54:44;;;;;;;4.00;3.60;;;;;;;;;;4920497;29;20222;-88
2024/02/02 02:57:10;;;;;;;5.05;4.07;;;;;;;;;;4954745;28;20451;-89
2024/02/02 02:59:35;;;;;;;7.68;3.80;;;5.00;99.90;;;;;;4951863;28;20196;-89
2024/02/02 03:02:02;;;;;;;8.40;4.70;;;;;;;;;;4937262;28;20252;-88
2024/02/02 03:04:28;;;;;;;5.28;3.72;;;4.90;99.90;;;;;;4953159;28;20711;-88
2024/02/02 03:06:54;;;;;;;7.77;3.63;;;;;;;;;;4941617;28;20192;-88
2024/02/02 03:09:20;;;;;;;6.55;3.40;;;4.90;99.90;;;;;;4956506;28;20767;-88
2024/02/02 03:11:46;;;;;;;7.83;4.30;;;;;;;;;;4925741;29;20188;-88
2024/02/02 03:14:11;;;;;;;4.80;3.90;;;5.10;99.90;;;;;;4940546;28;20184;-87
2024/02/02 03:16:42;;;;;;;7.07;4.47;;;4.80;99.90;;;;;;4940657;29;20215;-88
2024/02/02 03:19:08;;;;;;;9.07;3.97;;;5.00;99.90;;;;;;4963181;28;20211;-88
2024/02/02 03:21:34;;;;;;;6.20;3.70;;;;;;;;;;4940772;29;20191;-87
2024/02/02 03:24:00;;;;;;;5.57;3.63;;;4.80;99.90;;;;;;4938169;29;20199;-89
2024/02/02 03:26:26;;;;;;;4.70;4.07;;;4.70;99.90;;;;;;4931222;29;20213;-88
2024/02/02 03:28:52;;;;;;;6.37;4.00;;;;;;;;;;4939656;28;20246;-89
2024/02/02 03:31:18;;;;;;;6.07;3.38;;;5.30;99.90;;;;;;4940865;28;20200;-88
2024/02/02 03:33:44;;;;;;;8.33;3.53;;;5.80;99.90;;;;;;4939586;29;20196;-89
2024/02/02 03:36:10;;;;;;;5.87;3.57;;;;;;;;;;4936361;29;20464;-88
2024/02/02 03:38:35;;;;;;;4.60;3.58;;;5.40;99.90;;;;;;4956251;28;20205;-89
2024/02/02 03:41:01;;;;;;;4.00;3.27;;;;;;;;;;4935947;29;20658;-87
2024/02/02 03:43:27;;;;;;;4.57;3.42;;;5.20;99.90;;;;;;4956657;28;20185;-88
2024/02/02 03:45:53;;;;;;;6.63;3.93;;;;;;;;;;4924508;29;20686;-88
2024/02/02 03:48:18;;;;;;;5.80;3.60;;;5.20;99.90;;;;;;4955572;28;20677;-88
2024/02/02 03:50:44;;;;;;;4.67;3.33;;;;;;;;;;4939403;29;20212;-88
2024/02/02 03:53:10;;;;;;;5.82;3.72;;;5.20;99.90;;;;;;4937934;29;20184;-89
2024/02/02 03:55:35;;;;;;;5.40;3.70;;;7.60;99.90;;;;;;4980224;23;20227;-88
2024/02/02 03:58:01;;;;;;;9.30;4.20;;;5.20;99.90;;;;;;4967671;28;20253;-88
2024/02/02 04:00:27;;;;;;;4.33;3.47;;;;;;;;;;4966495;28;20262;-88
2024/02/02 04:02:53;;;;;;;4.73;3.50;;;5.40;99.90;;;;;;4967647;28;20463;-87
2024/02/02 04:05:19;;;;;;;4.40;2.80;;;4.80;99.90;;;;;;4970863;28;20461;-88
2024/02/02 04:07:44;;;;;;;9.25;3.50;;;6.30;99.90;;;;;;4970633;28;20204;-88
2024/02/02 04:10:10;;;;;;;6.50;3.60;;;5.40;99.90;;;;;;4975054;28;20211;-88
2024/02/02 04:12:37;;;;;;;5.00;3.50;;;;;;;;;;4992581;28;20192;-88
2024/02/02 04:15:04;;;;;;;4.38;3.17;;;5.50;99.90;;;;;;4981179;28;20692;-88
2024/02/02 04:17:29;;;;;;;4.63;3.33;;;5.70;99.90;;;;;;4984089;28;20188;-88
2024/02/02 04:19:55;;;;;;;3.70;2.97;;;;;;;;;;4975236;28;20197;-88
2024/02/02 04:22:21;;;;;;;6.32;3.67;;;5.40;99.90;;;;;;4976198;28;20198;-88
2024/02/02 04:24:46;;;;;;;5.10;3.60;;;4.60;99.90;;;;;;4982366;28;20213;-88
2024/02/02 04:27:15;;;;;;;5.07;3.10;;;6.00;99.90;;;;;;4975418;28;20191;-88
2024/02/02 04:29:40;;;;;;;5.80;3.50;;;6.60;99.90;;;;;;4978296;28;20299;-88
2024/02/02 04:32:06;;;;;;;5.50;3.50;;;6.50;99.90;;;;;;4979936;28;20203;-88
2024/02/02 04:34:34;;;;;;;6.60;4.43;;;5.80;99.90;;;;;;4971423;28;20291;-88
2024/02/02 04:37:03;;;;;;;9.10;3.95;;;4.90;99.90;;;;;;4973038;28;20199;-88
2024/02/02 04:39:28;;;;;;;5.72;3.67;;;4.00;99.90;;;;;;4971664;28;20245;-88
2024/02/02 04:41:56;;;;;;;4.50;3.70;;;7.00;99.90;;;;;;4972262;28;20183;-88
2024/02/02 04:44:26;;;;;;;4.65;3.55;;;5.80;99.90;;;;;;4970672;28;20176;-88
2024/02/02 04:46:51;;;;;;;7.32;3.60;;;5.70;99.90;;;;;;4957892;28;20192;-88
2024/02/02 04:49:20;;;;;;;8.33;4.23;;;4.30;99.90;;;;;;4988597;28;20205;-88
2024/02/02 04:51:46;;;;;;;11.65;4.03;;;6.30;99.90;;;;;;4999161;28;20186;-88
2024/02/02 04:54:12;;;;;;;5.67;4.07;;;5.70;99.90;;;;;;4976919;28;20223;-88
2024/02/02 04:56:45;;;;;;;4.83;3.97;;;6.30;99.90;;;;;;4972755;28;20227;-88
2024/02/02 04:59:12;;;;;;;5.63;4.05;;;7.00;99.90;;;;;;4973085;28;20188;-88
2024/02/02 05:01:38;;;;;;;6.20;4.00;;;6.20;99.90;;;;;;4979079;28;20188;-88
2024/02/02 05:04:05;;;;;;;7.20;4.10;;;6.60;99.90;;;;;;4996254;28;20192;-87
2024/02/02 05:06:30;;;;;;;6.50;4.57;;;7.50;99.90;;;;;;4991221;28;20196;-89
2024/02/02 05:09:00;;;;;;;5.40;3.70;;;7.30;99.90;;;;;;4993863;28;20238;-88
2024/02/02 05:11:25;;;;;;;6.68;3.70;;;5.90;99.90;;;;;;4994247;28;20172;-89
2024/02/02 05:13:51;;;;;;;4.53;3.57;;;7.20;99.90;;;;;;4992730;28;20226;-89
2024/02/02 05:16:19;;;;;;;5.37;3.60;;;7.70;99.90;;;;;;4990510;28;20263;-88
2024/02/02 05:18:50;;;;;;;10.13;6.07;;;6.70;99.90;;;;;;4982866;28;20188;-89
2024/02/02 05:21:15;;;;;;;7.15;4.60;;;7.30;99.90;;;;;;4980348;28;20223;-89
2024/02/02 05:23:46;;;;;;;5.03;3.90;;;6.50;99.90;;;;;;4977205;28;20203;-88
2024/02/02 05:26:14;;;;;;;6.40;4.65;;;6.40;99.90;;;;;;4973154;28;20218;-89
2024/02/02 05:28:47;;;;;;;4.40;3.90;;;5.00;99.90;;;;;;4986350;28;20607;-88
2024/02/02 05:31:13;;;;;;;4.80;3.80;;;5.40;99.90;;;;;;4955142;28;20193;-89
2024/02/02 05:33:38;;;;;;;4.93;4.23;;;7.30;99.90;;;;;;4991409;28;20188;-89
2024/02/02 05:36:05;;;;;;;7.10;5.70;;;;;;;;;;4970787;28;20223;-89
2024/02/02 05:38:30;;;;;;;5.45;4.75;;;6.10;99.90;;;;;;4973240;28;20184;-88
2024/02/02 05:40:56;;;;;;;5.70;3.90;;;7.10;99.90;;;;;;4975688;28;20183;-88
2024/02/02 05:43:23;;;;;;;8.67;4.80;;;5.20;99.90;;;;;;4973108;28;20210;-87
2024/02/02 05:45:48;;;;;;;7.15;4.75;;;6.10;99.90;;;;;;4972384;28;20215;-87
2024/02/02 05:48:16;;;;;;;9.93;5.70;;;7.10;99.90;;;;;;4984823;28;20226;-88
2024/02/02 05:50:44;;;;;;;9.60;5.38;;;6.20;99.90;;;;;;4976900;28;20187;-87
2024/02/02 05:53:11;;;;;;;6.00;5.40;;;7.60;99.90;;;;;;4976200;28;20184;-87
2024/02/02 05:55:36;;;;;;;7.25;5.00;;;6.30;99.90;;;;;;4982108;28;20426;-88
2024/02/02 05:58:05;;;;;;;7.87;4.70;;;7.30;99.90;;;;;;4972124;28;20199;-87
2024/02/02 06:00:31;;;;;;;5.90;5.15;;;6.40;99.90;;;;;;4995116;28;20176;-88
2024/02/02 06:02:56;;;;;;;6.90;5.43;;;6.40;99.90;;;;;;4986776;28;20179;-87
2024/02/02 06:05:23;;;;;;;11.93;5.53;;;7.40;99.90;;;;;;4982708;28;20477;-88
2024/02/02 06:07:48;;;;;;;5.15;4.50;;;7.00;99.90;;;;;;4996953;28;20196;-88
2024/02/02 06:10:15;;;;;;;7.50;5.23;;;5.80;99.90;;;;;;4995950;28;20262;-88
2024/02/02 06:12:41;;;;;;;5.95;5.20;;;8.00;99.90;;;;;;4993627;28;20176;-88
2024/02/02 06:15:07;;;;;;;8.90;5.90;;;5.80;99.90;;;;;;4990830;28;20214;-88
2024/02/02 06:17:35;;;;;;;6.22;4.57;;;6.40;99.90;;;;;;4985624;28;20283;-87
2024/02/02 06:20:01;;;;;;;8.00;5.68;;;7.70;99.90;;;;;;4965504;28;20184;-88
2024/02/02 06:22:27;;;;;;;5.37;4.87;;;5.90;99.90;;;;;;4976590;28;20189;-87
2024/02/02 06:24:52;;;;;;;5.67;5.07;;;6.80;99.90;;;;;;4970793;28;20215;-87
2024/02/02 06:27:22;;;;;;;7.77;5.20;;;6.90;99.90;;;;;;4982951;28;20359;-87
2024/02/02 06:29:50;;;;;;;6.05;5.45;;;8.00;99.90;;;;;;4985265;28;20204;-87
2024/02/02 06:32:20;;;;;;;5.85;4.85;;;6.30;99.90;;;;;;4980573;28;20198;-87
2024/02/02 06:34:48;;;;;;;7.90;5.60;;;6.50;99.90;;;;;;4975686;28;20204;-87
2024/02/02 06:37:14;;;;;;;7.25;6.05;;;6.60;99.90;;;;;;4979282;28;20183;-86
2024/02/02 06:39:46;;;;;;;6.90;5.90;;;5.70;99.90;;;;;;4992649;28;20190;-87
2024/02/02 06:42:16;;;;;;;7.13;6.43;;;7.50;99.90;;;;;;4986048;28;20199;-88
2024/02/02 06:44:41;;;;;;;6.00;5.43;;;7.90;99.90;;;;;;4970169;28;20209;-87
2024/02/02 06:47:07;;;;;;;6.83;5.47;;;5.80;99.90;;;;;;4978591;28;20574;-87
2024/02/02 06:49:34;;;;;;;6.73;4.70;;;6.60;99.90;;;;;;4980812;28;20236;-88
2024/02/02 06:51:59;;;;;;;6.60;6.00;;;6.80;99.90;;;;;;4976231;28;20638;-89
2024/02/02 06:54:25;;;;;;;9.10;7.37;;;7.50;99.90;;;;;;4975588;28;20215;-87
2024/02/02 06:56:53;;;;;;;6.73;5.70;;;6.80;99.90;;;;;;4977298;28;20192;-88
2024/02/02 06:59:23;;;;;;;6.18;5.53;;;7.90;99.90;;;;;;4962003;28;20188;-87
2024/02/02 07:01:49;;;;;;;6.50;5.57;;;7.20;99.90;;;;;;4975743;28;20196;-88
2024/02/02 07:04:16;;;;;;;7.30;5.88;;;7.80;99.90;;;;;;4979208;28;20191;-87
2024/02/02 07:07:04;;;;;;;7.53;5.80;;;8.50;99.90;;;;;;4975006;28;20188;-88
2024/02/02 07:09:33;;;;;;;9.40;5.88;;;7.30;99.90;;;;;;4986236;28;20208;-85
2024/02/02 07:12:37;;;;;;;6.05;5.45;;;6.40;99.90;;;;;;4976949;28;20551;-87
2024/02/02 07:15:36;;;;;;;7.38;5.80;;;7.10;99.90;;;;;;5003618;28;20192;-87
2024/02/02 07:18:02;;;;;;;6.45;5.47;;;6.50;99.90;;;;;;4991281;28;20257;-87
2024/02/02 07:20:28;;;;;;;8.07;6.38;;;6.80;99.90;;;;;;4976495;28;20198;-85
2024/02/02 07:22:56;;;;;;;7.90;5.90;;;8.80;99.90;;;;;;4983117;28;20644;-85
2024/02/02 07:25:23;;;;;;;7.32;6.35;;;7.20;99.90;;;;;;4973531;28;20212;-85
2024/02/02 07:27:51;;;;;;;7.47;5.40;;;7.00;99.90;;;;;;4982376;28;20259;-85
2024/02/02 07:30:42;;;;;;;10.00;6.85;;;7.10;99.90;;;;;;4973212;28;20201;-86
2024/02/02 07:33:30;;;;;;;6.85;5.97;;;6.70;99.90;;;;;;4989598;28;20180;-84
2024/02/02 07:36:02;;;;;;;10.55;7.28;;;8.50;99.90;;;;;;4977299;28;20564;-84
2024/02/02 07:38:27;;;;;;;8.77;6.95;;;7.00;99.90;;;;;;4981189;28;20211;-84
2024/02/02 07:41:05;;;;;;;7.73;6.90;;;9.30;99.90;;;;;;4979824;28;20194;-84
2024/02/02 07:43:32;;;;;;;8.60;6.80;;;7.50;99.90;;;;;;4972714;28;20190;-87
2024/02/02 07:46:02;;;;;;;8.13;6.65;;;6.20;99.90;;;;;;4976306;28;20208;-87
2024/02/02 07:48:27;;;;;;;7.53;6.72;;;6.80;99.90;;;;;;4971941;28;20200;-87
2024/02/02 07:50:53;;;;;;;8.80;6.97;;;8.00;99.90;;;;;;4973011;28;20254;-88
2024/02/02 07:53:19;;;;;;;8.50;7.60;;;6.60;99.90;;;;;;4968944;28;20180;-89
2024/02/02 07:55:45;;;;;;;9.63;7.00;;;;;;;;;;4969169;28;20224;-88
2024/02/02 07:58:11;;;;;;;7.50;6.20;;;7.40;99.90;;;;;;4989844;28;20184;-89
2024/02/02 08:00:36;;;;;;;7.87;6.60;;;8.20;99.90;;;;;;4958269;28;20187;-88
2024/02/02 08:03:02;;;;;;;8.13;6.20;;;7.10;99.90;;;;;;4978085;28;20180;-88
2024/02/02 08:05:28;;;;;;;8.50;6.70;;;7.70;99.90;;;;;;4972151;28;20207;-88
2024/02/02 08:07:53;;;;;;;7.45;6.25;;;8.50;99.90;;;;;;4977873;28;20187;-88
2024/02/02 08:10:19;;;;;;;8.30;7.33;;;;;;;;;;4967729;28;21018;-81
2024/02/02 08:12:45;;;;;;;8.83;7.80;;;7.60;99.90;;;;;;4972194;28;20184;-81
2024/02/02 08:15:11;;;;;;;13.77;7.63;;;7.60;99.90;;;;;;4972468;28;21014;-81
2024/02/02 08:17:36;;;;;;;8.20;6.37;;;7.70;99.90;;;;;;4975514;28;20402;-80
2024/02/02 08:20:02;;;;;;;8.40;6.83;;;7.70;99.90;;;;;;4973137;28;20184;-82
2024/02/02 08:22:27;;;;;;;10.00;7.53;;;7.70;99.90;;;;;;4973044;28;20192;-82
2024/02/02 08:24:53;;;;;;;11.40;6.87;;;8.10;99.90;;;;;;4970147;28;20211;-82
2024/02/02 08:27:19;;;;;;;8.30;7.53;;;8.10;99.90;;;;;;4979016;28;20191;-80
2024/02/02 08:29:46;;;;;;;8.57;7.05;;;7.90;99.90;;;;;;4977841;28;20268;-80
2024/02/02 08:32:12;;;;;;;9.00;7.32;;;8.20;99.90;;;;;;4982452;28;20200;-81
2024/02/02 08:34:38;;;;;;;8.98;7.97;;;8.10;99.90;;;;;;4972958;28;20204;-81
2024/02/02 08:37:04;;;;;;;8.17;6.33;;;7.80;99.90;;;;;;4973154;28;20195;-82
2024/02/02 08:39:34;;;;;;;8.35;6.80;;;7.90;99.90;;;;;;4975220;28;20271;-83
2024/02/02 08:42:01;;;;;;;9.07;7.80;;;8.10;99.90;;;;;;4978693;28;20661;-88
2024/02/02 08:44:30;;;;;;;9.80;7.97;;;7.90;99.90;;;;;;4976319;28;20184;-87
2024/02/02 08:46:57;;;;;;;10.52;8.00;;;8.30;99.90;;;;;;4980752;28;20704;-89
2024/02/02 08:49:41;;;;;;;8.40;6.85;;;8.50;99.90;;;;;;4983970;28;20199;-93
2024/02/02 08:52:11;;;;;;;10.02;7.63;;;7.90;99.90;;;;;;4971377;28;20526;-91
2024/02/02 08:54:44;;;;;;;10.30;7.38;;;8.10;99.90;;;;;;4977014;28;20217;-90
2024/02/02 08:57:25;;;;;;;8.18;6.70;;;8.50;99.90;;;;;;4980897;28;20187;-91
2024/02/02 08:59:56;;;;;;;8.10;6.68;;;8.10;99.90;;;;;;5000319;28;20424;-91
2024/02/02 09:02:56;;;;;;;9.13;7.32;;;9.90;99.90;;;;;;5355339;23;20249;-89
2024/02/02 09:08:34;;;;;;;10.20;7.70;;;9.00;99.90;;;;;;5949349;23;20238;-92
2024/02/02 09:11:00;;;;;;;9.60;8.02;;;9.00;99.90;;;;;;5012643;28;20187;-91
2024/02/02 09:13:33;;;;;;;7.70;6.73;;;8.10;99.90;;;;;;5007246;28;20221;-91
2024/02/02 09:16:22;;;;;;;7.47;6.25;;;9.00;99.90;;;;;;5001216;28;20218;-91
2024/02/02 09:22:29;;;;;;;8.98;6.47;;;9.30;99.90;;;;;;4945086;28;20219;-92
2024/02/02 09:24:56;;;;;;;13.55;7.45;;;9.20;99.90;;;;;;5012696;28;20203;-92
2024/02/02 09:36:26;;;;;;;7.40;6.70;;;9.40;99.90;;;;;;5238757;23;20263;-90
2024/02/02 09:39:44;;;;;;;9.00;6.80;;;11.00;99.90;;;;;;5006343;28;20192;-89
2024/02/02 09:45:32;;;;;;;8.68;6.60;;;10.10;99.90;;;;;;5387727;23;20245;31
2024/02/02 09:51:18;;;;;;;5.78;4.90;;;10.40;99.90;;;;;;5063818;23;20275;-89
2024/02/02 09:54:20;;;;;;;6.05;5.45;;;10.20;99.90;;;;;;4986882;28;20200;-89
2024/02/02 09:57:02;;;;;;;7.55;5.63;;;10.60;99.90;;;;;;4963803;28;20281;-88
2024/02/02 10:00:08;;;;;;;6.55;5.28;;;10.60;99.90;;;;;;4960406;28;20180;-89
2024/02/02 10:03:14;;;;;;;5.78;5.18;;;10.20;99.90;;;;;;4960946;28;20454;-90
2024/02/02 10:06:03;;;;;;;5.07;4.40;;;10.30;99.90;;;;;;4958164;28;20307;-90
2024/02/02 10:09:09;;;;;;;4.63;4.22;;;10.30;99.90;;;;;;4956563;28;20419;-88
2024/02/02 10:12:14;;;;;;;4.20;3.75;;;10.50;99.90;;;;;;4952047;28;20191;-87
2024/02/02 10:14:59;;;;;;;7.25;5.90;;;10.80;99.90;;;;;;4955446;28;20272;-86
2024/02/02 10:17:53;;;;;;;5.40;4.68;;;10.20;99.90;;;;;;4939161;29;20199;-87
2024/02/02 10:20:31;;;;;;;4.53;4.13;;;10.70;99.90;;;;;;4930487;29;20184;-87
2024/02/02 10:23:23;;;;;;;4.90;4.35;;;10.40;99.90;;;;;;4930372;29;20186;-86
2024/02/02 10:26:30;;;;;;;7.90;4.05;;;10.50;99.90;;;;;;4951089;28;20281;-86
2024/02/02 10:29:12;;;;;;;5.35;4.00;;;10.70;99.90;;;;;;4930006;29;20294;-87
2024/02/02 10:32:03;;;;;;;5.07;4.57;;;10.50;99.90;;;;;;4942849;28;20209;-87
2024/02/02 10:34:54;;;;;;;3.58;3.28;;;10.80;99.90;;;;;;4950675;28;20188;-87
2024/02/02 10:37:38;;;;;;;4.50;4.00;;;11.10;99.90;;;;;;4933005;29;20246;-87
2024/02/02 10:40:23;;;;;;;4.00;3.70;;;11.70;99.90;;;;;;4951646;29;20332;-87
2024/02/02 10:43:17;;;;;;;4.10;3.47;;;12.30;99.90;;;;;;4936756;29;20193;-87
2024/02/02 10:46:10;;;;;;;3.92;3.63;;;12.10;99.90;;;;;;4946976;28;20237;-86
2024/02/02 10:49:03;;;;;;;3.80;3.45;;;12.20;99.90;;;;;;4937183;29;20206;-86
2024/02/02 10:51:35;;;;;;;4.30;3.90;;;12.60;99.90;;;;;;4934832;29;20509;-86
2024/02/02 10:54:39;;;;;;;3.42;3.13;;;12.20;99.90;;;;;;4928928;29;20184;-86
2024/02/02 10:57:27;;;;;;;4.47;3.55;;;12.80;99.90;;;;;;4938700;29;20192;-85
2024/02/02 11:00:23;;;;;;;3.80;3.50;;;13.10;99.30;;;;;;4934559;29;20264;-87
2024/02/02 11:17:16;;;;;;;4.38;3.00;;;15.80;93.40;;;;;;4950884;23;20698;-88
2024/02/02 11:23:08;;;;;;;2.55;2.35;;;16.10;94.00;;;;;;4929414;29;20193;-88
2024/02/02 11:25:46;;;;;;;4.00;3.05;;;16.00;91.90;;;;;;4929684;29;20265;-88
2024/02/02 11:28:34;;;;;;;2.55;2.30;;;15.70;92.00;;;;;;4938983;29;20213;-88
2024/02/02 11:31:42;;;;;;;2.45;2.20;;;15.70;92.00;;;;;;4930472;29;20186;-88
2024/02/02 11:34:49;;;;;;;1.88;1.77;;;15.70;91.10;;;;;;4935078;29;20189;-87
2024/02/02 11:37:37;;;;;;;2.20;2.00;;;15.00;91.10;;;;;;4938335;28;20189;-88
2024/02/02 11:40:09;;;;;;;2.00;1.80;;;15.00;91.30;;;;;;4938127;28;20193;-88
2024/02/02 11:42:44;;;;;;;3.67;2.40;;;15.00;92.30;;;;;;4935902;29;20185;-89
2024/02/02 11:45:20;;;;;;;1.98;1.77;;;14.10;92.40;;;;;;4915999;29;20232;-88
2024/02/02 11:48:01;;;;;;;1.98;1.77;;;15.30;91.80;;;;;;4929860;29;20750;-88
2024/02/02 11:54:17;;;;;;;3.20;2.03;;;16.60;91.90;;;;;;4935157;29;20192;-88
2024/02/02 11:56:53;;;;;;;2.25;2.05;;;15.00;91.50;;;;;;4950256;28;20640;-89
2024/02/02 11:59:25;;;;;;;1.63;1.52;;;14.80;90.50;;;;;;4933017;29;20193;-89
2024/02/02 12:02:16;;;;;;;4.78;2.40;;;14.70;90.30;;;;;;4938093;29;20221;-85
2024/02/02 12:04:45;;;;;;;1.55;1.45;;;14.60;90.40;;;;;;4940902;29;20205;-86
2024/02/02 12:07:17;;;;;;;1.92;1.75;;;14.90;90.30;;;;;;4940158;29;20189;-85
2024/02/02 12:09:46;;;;;;;3.45;2.75;;;14.30;90.30;;;;;;4936065;29;20240;-87
2024/02/02 12:12:37;;;;;;;7.43;2.05;;;16.10;91.90;;;;;;4937950;29;20358;-86
2024/02/02 12:15:04;;;;;;;2.38;1.50;;;14.20;90.40;;;;;;4923326;29;20220;-87
2024/02/02 12:17:30;;;;;;;2.15;1.40;;;14.30;90.40;;;;;;4933078;29;20189;-86
2024/02/02 12:19:57;;;;;;;2.50;2.00;;;13.50;89.60;;;;;;4933515;29;20185;-85
2024/02/02 12:22:23;;;;;;;1.95;1.20;;;13.70;90.50;;;;;;4933347;29;20637;-84
2024/02/02 12:24:49;;;;;;;6.55;2.30;;;13.50;90.60;;;;;;4940266;29;20213;-84
2024/02/02 12:27:14;;;;;;;2.60;1.40;;;14.30;91.20;;;;;;4937324;29;20190;-85
2024/02/02 12:29:40;;;;;;;1.63;1.53;;;13.80;90.40;;;;;;4935916;29;20675;-86
2024/02/02 12:32:09;;;;;;;1.90;1.73;;;14.00;90.60;;;;;;4937907;29;20468;-86
2024/02/02 12:34:35;;;;;;;2.70;1.80;;;13.80;90.70;;;;;;4932413;29;20497;-87
2024/02/02 12:37:01;;;;;;;1.47;1.17;;;14.00;90.90;;;;;;4928778;29;20228;-88
2024/02/02 12:39:30;;;;;;;1.57;1.30;;;14.20;90.40;;;;;;4938751;29;20514;-87
2024/02/02 12:41:57;;;;;;;1.88;1.30;;;14.10;89.70;;;;;;4949450;28;20453;-87
2024/02/02 12:44:25;;;;;;;2.40;1.50;;;13.60;89.20;;;;;;4935025;29;20264;-88
2024/02/02 12:46:52;;;;;;;1.58;1.15;;;14.70;90.50;;;;;;4934618;29;20651;-88
2024/02/02 12:49:19;;;;;;;2.00;1.45;;;14.20;90.30;;;;;;4935203;29;20689;-87
2024/02/02 12:51:44;;;;;;;3.53;1.67;;;13.60;89.60;;;;;;4936832;29;20193;-87
2024/02/02 12:54:10;;;;;;;1.53;1.43;;;13.30;90.00;;;;;;4936628;29;20673;-88
2024/02/02 12:56:36;;;;;;;2.40;2.03;;;13.70;90.30;;;;;;4945924;29;20492;-85
2024/02/02 12:59:04;;;;;;;3.20;2.03;;;14.00;90.30;;;;;;4950130;29;20209;-86
2024/02/02 13:01:35;;;;;;;1.92;1.42;;;13.30;90.00;;;;;;4939790;29;20601;-86
2024/02/02 13:04:02;;;;;;;2.15;1.70;;;13.40;90.00;;;;;;4950706;29;20194;-86
2024/02/02 13:06:28;;;;;;;1.30;1.20;;;13.50;90.10;;;;;;4934951;29;20702;-86
2024/02/02 13:09:18;;;;;;;1.90;1.30;;;14.00;90.30;;;;;;4944096;29;20232;-84
2024/02/02 13:11:46;;;;;;;1.20;1.10;;;13.50;90.00;;;;;;4936899;29;20190;-86
2024/02/02 13:14:12;;;;;;;2.10;1.40;;;13.50;90.30;;;;;;4916370;29;20193;-87
2024/02/02 13:16:38;;;;;;;1.90;1.40;;;13.60;90.30;;;;;;4936603;29;20611;-87
2024/02/02 13:19:07;;;;;;;1.60;1.25;;;13.60;90.50;;;;;;4938755;29;20722;-87
2024/02/02 13:21:39;;;;;;;2.13;1.15;;;13.80;90.50;;;;;;4939023;29;20233;-87
2024/02/02 13:24:26;;;;;;;1.50;1.25;;;13.50;90.50;;;;;;4938587;29;20190;-87
2024/02/02 13:27:03;;;;;;;2.35;1.75;;;13.80;90.10;;;;;;4950143;29;20184;-88
2024/02/02 13:29:33;;;;;;;1.90;1.10;;;13.10;89.60;;;;;;4951581;29;20276;-86
2024/02/02 13:31:59;;;;;;;1.83;1.13;;;13.90;90.60;;;;;;4944001;29;20182;-87
2024/02/02 13:34:24;;;;;;;1.30;1.13;;;13.40;90.50;;;;;;4932121;29;20192;-87
2024/02/02 13:36:50;;;;;;;1.80;1.17;;;13.80;90.40;;;;;;4938184;29;20201;-87
2024/02/02 13:39:21;;;;;;;1.27;1.17;;;13.50;90.00;;;;;;4936099;29;20208;-87
2024/02/02 13:41:47;;;;;;;1.20;1.10;;;13.30;88.90;;;;;;4942187;29;20196;-87
2024/02/02 13:44:16;;;;;;;1.38;1.10;;;13.80;89.20;;;;;;4945522;28;20189;-87
2024/02/02 13:46:46;;;;;;;2.40;2.20;;;13.40;88.40;;;;;;4940662;28;20225;-88
2024/02/02 13:49:22;;;;;;;1.60;1.15;;;13.30;88.30;;;;;;4954641;29;20276;-88
2024/02/02 13:51:48;;;;;;;1.20;1.10;;;13.80;89.40;;;;;;4942372;29;20217;-88
2024/02/02 13:54:18;;;;;;;1.27;1.17;;;13.30;88.50;;;;;;4949778;28;20189;-88
2024/02/02 13:56:44;;;;;;;1.30;1.20;;;14.00;88.90;;;;;;4952230;28;20457;-87
2024/02/02 13:59:19;;;;;;;1.15;1.05;;;13.50;87.80;;;;;;4925943;29;20261;-88
2024/02/02 14:01:46;;;;;;;1.58;1.20;;;13.90;87.50;;;;;;4954124;28;20217;-87
2024/02/02 14:04:12;;;;;;;2.00;1.10;;;13.50;86.50;;;;;;4948098;28;20803;-87
2024/02/02 14:06:38;;;;;;;2.85;1.55;;;13.50;86.80;;;;;;4918834;29;20268;-88
2024/02/02 14:09:04;;;;;;;1.30;1.20;;;13.40;86.80;;;;;;4931923;29;20221;-87
2024/02/02 14:11:30;;;;;;;1.60;1.08;;;13.10;85.30;;;;;;4937322;29;20196;-87